createdAt,value
2018-12-26T00:00:15.339Z,14.68
2018-12-26T00:02:47.090Z,17.07
2018-12-26T00:05:15.513Z,18.92
2018-12-26T00:07:45.818Z,25.23
2018-12-26T00:10:14.401Z,26.90
2018-12-26T00:12:43.268Z,18.07
2018-12-26T00:15:12.340Z,33.00
2018-12-26T00:17:40.933Z,34.60
2018-12-26T00:20:09.440Z,26.60
2018-12-26T00:22:39.610Z,18.23
2018-12-26T00:25:08.301Z,22.80
2018-12-26T00:27:36.705Z,20.77
2018-12-26T00:30:05.581Z,22.42
2018-12-26T00:32:34.218Z,26.48
2018-12-26T00:35:02.629Z,20.02
2018-12-26T00:37:31.039Z,27.45
2018-12-26T00:39:59.446Z,21.00
2018-12-26T00:42:27.850Z,25.52
2018-12-26T00:44:56.496Z,40.05
2018-12-26T00:47:25.163Z,25.10
2018-12-26T00:49:53.607Z,45.33
2018-12-26T00:52:22.002Z,45.73
2018-12-26T00:54:50.471Z,37.20
2018-12-26T00:57:18.876Z,34.35
2018-12-26T00:59:47.282Z,33.95
2018-12-26T01:02:15.702Z,45.65
2018-12-26T01:04:44.102Z,44.35
2018-12-26T01:07:12.565Z,21.90
2018-12-26T01:09:40.969Z,35.10
2018-12-26T01:12:09.618Z,27.75
2018-12-26T01:14:38.027Z,30.60
2018-12-26T01:17:06.452Z,46.42
2018-12-26T01:19:34.861Z,56.95
2018-12-26T01:22:03.266Z,55.00
2018-12-26T01:24:31.665Z,81.37
2018-12-26T01:27:00.085Z,96.28
2018-12-26T01:29:28.485Z,75.85
2018-12-26T01:31:57.122Z,18.40
2018-12-26T01:34:25.770Z,38.73
2018-12-26T01:36:54.170Z,27.73
2018-12-26T01:39:22.566Z,54.10
2018-12-26T01:41:50.980Z,66.37
2018-12-26T01:44:19.387Z,93.07
2018-12-26T01:46:47.787Z,69.87
2018-12-26T01:49:16.418Z,69.03
2018-12-26T01:51:50.050Z,59.23
2018-12-26T01:54:18.522Z,52.98
2018-12-26T01:56:46.938Z,85.03
2018-12-26T01:59:15.341Z,44.75
2018-12-26T02:01:43.750Z,42.13
2018-12-26T02:04:12.378Z,91.82
2018-12-26T02:06:41.043Z,117.62
2018-12-26T02:09:10.589Z,60.45
2018-12-26T02:11:38.993Z,72.50
2018-12-26T02:14:07.389Z,60.63
2018-12-26T02:16:35.821Z,37.38
2018-12-26T02:19:04.299Z,35.48
2018-12-26T02:21:32.708Z,49.50
2018-12-26T02:24:01.121Z,19.42
2018-12-26T02:26:36.383Z,23.83
2018-12-26T02:28:59.633Z,12.63
2018-12-26T02:31:28.040Z,23.10
2018-12-26T02:33:56.528Z,24.92
2018-12-26T02:36:24.927Z,36.30
2018-12-26T02:38:53.472Z,27.20
2018-12-26T02:41:21.854Z,57.27
2018-12-26T02:43:50.274Z,17.10
2018-12-26T02:46:18.669Z,29.70
2018-12-26T02:48:47.082Z,42.30
2018-12-26T02:51:15.723Z,17.35
2018-12-26T02:53:44.133Z,28.57
2018-12-26T02:56:12.546Z,22.82
2018-12-26T02:58:41.185Z,22.45
2018-12-26T03:01:09.644Z,32.23
2018-12-26T03:03:38.101Z,26.15
2018-12-26T03:06:06.510Z,48.78
2018-12-26T03:08:34.914Z,31.10
2018-12-26T03:11:03.324Z,36.05
2018-12-26T03:13:31.734Z,24.75
2018-12-26T03:16:00.384Z,31.70
2018-12-26T03:18:28.822Z,26.50
2018-12-26T03:20:57.231Z,20.72
2018-12-26T03:23:25.653Z,25.97
2018-12-26T03:25:54.289Z,41.23
2018-12-26T03:28:22.733Z,21.07
2018-12-26T03:30:51.859Z,38.05
2018-12-26T03:33:20.286Z,19.50
2018-12-26T03:35:49.077Z,27.42
2018-12-26T03:38:17.731Z,28.73
2018-12-26T03:40:46.365Z,35.73
2018-12-26T03:43:14.766Z,57.30
2018-12-26T03:45:43.674Z,58.33
2018-12-26T03:48:12.085Z,18.23
2018-12-26T03:50:40.597Z,37.65
2018-12-26T03:53:09.169Z,27.20
2018-12-26T03:55:37.591Z,52.48
2018-12-26T03:58:06.398Z,18.10
2018-12-26T04:00:35.117Z,12.82
2018-12-26T04:03:03.746Z,40.33
2018-12-26T04:05:32.163Z,23.55
2018-12-26T04:08:00.633Z,32.20
2018-12-26T04:10:29.429Z,17.77
2018-12-26T04:12:57.931Z,34.13
2018-12-26T04:15:26.418Z,38.73
2018-12-26T04:17:54.986Z,36.63
2018-12-26T04:20:23.484Z,44.83
2018-12-26T04:22:52.118Z,20.43
2018-12-26T04:25:20.607Z,19.20
2018-12-26T04:27:49.009Z,24.98
2018-12-26T04:30:17.414Z,14.58
2018-12-26T04:32:46.070Z,27.93
2018-12-26T04:35:14.480Z,25.52
2018-12-26T04:37:42.909Z,25.23
2018-12-26T04:40:11.319Z,17.82
2018-12-26T04:42:39.717Z,12.63
2018-12-26T04:45:08.130Z,35.92
2018-12-26T04:47:36.532Z,17.30
2018-12-26T04:50:05.379Z,34.18
2018-12-26T04:52:33.806Z,24.65
2018-12-26T04:55:02.452Z,22.70
2018-12-26T04:57:30.852Z,24.02
2018-12-26T04:59:59.385Z,24.15
2018-12-26T05:02:27.754Z,39.92
2018-12-26T05:04:56.150Z,16.82
2018-12-26T05:07:24.554Z,21.52
2018-12-26T05:09:52.970Z,18.40
2018-12-26T05:12:21.477Z,16.42
2018-12-26T05:14:49.921Z,12.13
2018-12-26T05:17:18.323Z,12.93
2018-12-26T05:19:46.957Z,13.65
2018-12-26T05:22:15.442Z,23.32
2018-12-26T05:24:43.834Z,13.90
2018-12-26T05:27:12.238Z,12.03
2018-12-26T05:29:40.640Z,12.10
2018-12-26T05:32:09.046Z,21.82
2018-12-26T05:34:37.446Z,32.90
2018-12-26T05:37:06.130Z,16.17
2018-12-26T05:39:34.531Z,20.92
2018-12-26T05:42:02.994Z,18.12
2018-12-26T05:44:31.396Z,34.58
2018-12-26T05:46:59.803Z,34.23
2018-12-26T05:49:28.229Z,15.63
2018-12-26T05:51:56.662Z,13.68
2018-12-26T05:54:25.066Z,46.23
2018-12-26T05:56:53.693Z,22.70
2018-12-26T05:59:22.093Z,12.37
2018-12-26T06:01:50.505Z,10.20
2018-12-26T06:04:18.898Z,12.23
2018-12-26T06:06:47.321Z,10.23
2018-12-26T06:09:15.701Z,10.30
2018-12-26T06:11:44.163Z,13.05
2018-12-26T06:14:12.604Z,10.30
2018-12-26T06:16:41.287Z,9.03
2018-12-26T06:19:09.673Z,13.48
2018-12-26T06:21:38.090Z,13.45
2018-12-26T06:24:06.489Z,13.78
2018-12-26T06:26:34.917Z,14.28
2018-12-26T06:29:03.424Z,12.35
2018-12-26T06:31:32.029Z,14.20
2018-12-26T06:34:00.434Z,12.47
2018-12-26T06:36:29.077Z,12.65
2018-12-26T06:38:57.489Z,15.38
2018-12-26T06:41:26.125Z,14.30
2018-12-26T06:43:54.542Z,15.35
2018-12-26T06:46:22.939Z,13.45
2018-12-26T06:48:51.349Z,14.80
2018-12-26T06:51:19.990Z,12.50
2018-12-26T06:53:48.418Z,13.03
2018-12-26T06:56:16.881Z,13.83
2018-12-26T06:58:45.515Z,11.68
2018-12-26T07:01:13.923Z,13.00
2018-12-26T07:03:42.321Z,12.93
2018-12-26T07:06:10.726Z,12.80
2018-12-26T07:08:39.381Z,13.22
2018-12-26T07:11:07.807Z,15.15
2018-12-26T07:13:36.213Z,12.45
2018-12-26T07:16:04.618Z,10.55
2018-12-26T07:18:33.033Z,15.03
2018-12-26T07:21:01.434Z,15.55
2018-12-26T07:23:29.829Z,11.00
2018-12-26T07:25:58.230Z,12.60
2018-12-26T07:28:26.634Z,9.68
2018-12-26T07:30:55.291Z,13.90
2018-12-26T07:33:23.703Z,12.20
2018-12-26T07:35:52.104Z,12.78
2018-12-26T07:38:20.530Z,14.13
2018-12-26T07:40:48.947Z,10.40
2018-12-26T07:43:17.594Z,10.70
2018-12-26T07:45:46.238Z,9.73
2018-12-26T07:48:14.644Z,11.43
2018-12-26T07:50:43.041Z,10.70
2018-12-26T07:53:11.445Z,12.40
2018-12-26T07:55:40.079Z,10.78
2018-12-26T07:58:17.695Z,12.65
2018-12-26T08:00:46.419Z,10.28
2018-12-26T08:03:15.057Z,12.53
2018-12-26T08:05:43.474Z,9.63
2018-12-26T08:08:11.886Z,11.85
2018-12-26T08:10:40.282Z,11.10
2018-12-26T08:13:08.759Z,11.12
2018-12-26T08:15:37.170Z,11.63
2018-12-26T08:18:05.574Z,8.90
2018-12-26T08:20:33.978Z,10.43
2018-12-26T08:23:02.381Z,12.60
2018-12-26T08:25:30.783Z,10.35
2018-12-26T08:27:59.415Z,12.58
2018-12-26T08:30:33.865Z,11.45
2018-12-26T08:33:02.389Z,10.85
2018-12-26T08:35:30.774Z,11.22
2018-12-26T08:37:59.179Z,15.15
2018-12-26T08:40:27.839Z,12.15
2018-12-26T08:42:56.287Z,118.42
2018-12-26T08:45:24.682Z,15.83
2018-12-26T08:47:53.086Z,19.40
2018-12-26T08:50:21.514Z,48.00
2018-12-26T08:52:50.284Z,38.63
2018-12-26T08:55:19.032Z,37.58
2018-12-26T08:57:47.439Z,31.97
2018-12-26T09:00:15.930Z,27.37
2018-12-26T09:02:44.335Z,17.67
2018-12-26T09:05:12.806Z,14.40
2018-12-26T09:07:41.208Z,10.82
2018-12-26T09:10:10.750Z,10.72
2018-12-26T09:12:39.458Z,11.00
2018-12-26T09:15:07.873Z,10.55
2018-12-26T09:17:36.265Z,9.25
2018-12-26T09:20:06.001Z,11.25
2018-12-26T09:22:34.402Z,9.28
2018-12-26T09:25:02.820Z,9.98
2018-12-26T09:27:31.517Z,9.05
2018-12-26T09:29:59.912Z,9.60
2018-12-26T09:32:28.321Z,9.88
2018-12-26T09:34:56.712Z,9.93
2018-12-26T09:37:25.222Z,10.20
2018-12-26T09:39:53.819Z,11.18
2018-12-26T09:42:22.488Z,9.60
2018-12-26T09:44:54.592Z,8.38
2018-12-26T09:47:21.221Z,11.78
2018-12-26T09:49:49.614Z,9.55
2018-12-26T09:52:18.039Z,9.78
2018-12-26T09:54:46.446Z,11.55
2018-12-26T09:57:15.066Z,11.15
2018-12-26T09:59:43.698Z,11.90
2018-12-26T10:02:12.123Z,10.10
2018-12-26T10:04:40.527Z,10.40
2018-12-26T10:07:09.188Z,10.20
2018-12-26T10:09:37.577Z,12.47
2018-12-26T10:12:05.974Z,12.55
2018-12-26T10:14:34.618Z,13.20
2018-12-26T10:17:03.253Z,11.25
2018-12-26T10:19:31.920Z,19.75
2018-12-26T10:22:00.321Z,11.28
2018-12-26T10:24:28.729Z,13.28
2018-12-26T10:26:57.125Z,11.83
2018-12-26T10:29:25.523Z,10.70
2018-12-26T10:31:53.934Z,10.70
2018-12-26T10:34:22.334Z,13.43
2018-12-26T10:36:50.976Z,12.33
2018-12-26T10:39:19.602Z,14.07
2018-12-26T10:41:47.997Z,12.20
2018-12-26T10:44:16.401Z,14.47
2018-12-26T10:46:45.056Z,15.15
2018-12-26T10:49:13.751Z,15.25
2018-12-26T10:51:42.153Z,14.15
2018-12-26T10:54:10.570Z,15.15
2018-12-26T10:56:39.034Z,10.45
2018-12-26T10:59:10.278Z,14.13
2018-12-26T11:01:37.549Z,12.23
2018-12-26T11:04:05.975Z,14.47
2018-12-26T11:06:34.409Z,13.38
2018-12-26T11:09:02.969Z,14.80
2018-12-26T11:11:31.382Z,17.20
2018-12-26T11:13:59.778Z,12.55
2018-12-26T11:16:28.181Z,13.38
2018-12-26T11:18:56.569Z,15.18
2018-12-26T11:21:24.983Z,14.20
2018-12-26T11:23:53.609Z,14.78
2018-12-26T11:26:22.250Z,13.03
2018-12-26T11:28:50.697Z,16.30
2018-12-26T11:31:19.207Z,13.88
2018-12-26T11:33:47.596Z,13.60
2018-12-26T11:36:16.282Z,14.05
2018-12-26T11:38:44.680Z,14.47
2018-12-26T11:41:13.325Z,14.33
2018-12-26T11:43:41.962Z,15.23
2018-12-26T11:46:10.368Z,18.35
2018-12-26T11:48:38.770Z,19.52
2018-12-26T11:51:07.427Z,14.68
2018-12-26T11:53:36.058Z,15.70
2018-12-26T11:56:04.464Z,16.67
2018-12-26T11:58:32.853Z,14.40
2018-12-26T12:01:01.519Z,16.50
2018-12-26T12:03:29.905Z,12.60
2018-12-26T12:05:58.327Z,14.15
2018-12-26T12:08:26.789Z,15.63
2018-12-26T12:10:55.424Z,14.68
2018-12-26T12:13:23.840Z,14.30
2018-12-26T12:15:52.238Z,12.95
2018-12-26T12:18:20.637Z,14.50
2018-12-26T12:20:49.107Z,13.15
2018-12-26T12:23:17.734Z,13.72
2018-12-26T12:25:46.214Z,12.03
2018-12-26T12:28:14.846Z,15.03
2018-12-26T12:30:43.253Z,15.05
2018-12-26T12:33:11.662Z,12.50
2018-12-26T12:35:40.053Z,13.35
2018-12-26T12:38:08.463Z,18.98
2018-12-26T12:40:36.855Z,18.10
2018-12-26T12:43:05.245Z,14.35
2018-12-26T12:45:33.642Z,13.50
2018-12-26T12:48:02.111Z,17.80
2018-12-26T12:50:30.502Z,17.35
2018-12-26T12:52:59.158Z,15.38
2018-12-26T12:55:27.545Z,13.30
2018-12-26T12:57:55.962Z,12.85
2018-12-26T13:00:24.360Z,15.68
2018-12-26T13:03:00.071Z,17.00
2018-12-26T13:05:22.869Z,15.48
2018-12-26T13:07:51.270Z,14.30
2018-12-26T13:10:19.666Z,16.87
2018-12-26T13:12:48.065Z,16.37
2018-12-26T13:15:16.706Z,15.53
2018-12-26T13:17:45.093Z,16.57
2018-12-26T13:20:13.505Z,16.55
2018-12-26T13:22:41.888Z,19.62
2018-12-26T13:25:10.322Z,19.95
2018-12-26T13:27:38.735Z,18.85
2018-12-26T13:30:09.770Z,20.55
2018-12-26T13:32:38.400Z,28.98
2018-12-26T13:35:06.814Z,26.07
2018-12-26T13:37:40.163Z,17.48
2018-12-26T13:40:08.806Z,17.55
2018-12-26T13:42:37.221Z,15.75
2018-12-26T13:45:05.694Z,17.40
2018-12-26T13:47:34.100Z,13.90
2018-12-26T13:50:02.503Z,15.70
2018-12-26T13:52:30.919Z,16.40
2018-12-26T13:54:59.320Z,16.05
2018-12-26T13:57:27.730Z,14.03
2018-12-26T14:00:02.265Z,16.05
2018-12-26T14:02:26.249Z,15.15
2018-12-26T14:04:54.642Z,15.63
2018-12-26T14:07:23.045Z,16.00
2018-12-26T14:09:51.679Z,20.37
2018-12-26T14:12:20.147Z,15.18
2018-12-26T14:14:48.600Z,14.80
2018-12-26T14:17:17.011Z,15.80
2018-12-26T14:19:45.406Z,16.02
2018-12-26T14:22:13.798Z,19.37
2018-12-26T14:24:42.201Z,13.58
2018-12-26T14:27:10.858Z,15.10
2018-12-26T14:29:39.284Z,17.57
2018-12-26T14:32:07.684Z,14.98
2018-12-26T14:34:36.110Z,13.95
2018-12-26T14:37:04.523Z,14.90
2018-12-26T14:39:32.928Z,14.25
2018-12-26T14:42:01.584Z,14.40
2018-12-26T14:44:29.985Z,15.38
2018-12-26T14:46:58.628Z,17.77
2018-12-26T14:49:27.117Z,15.15
2018-12-26T14:51:58.869Z,12.82
2018-12-26T14:54:27.272Z,16.45
2018-12-26T14:56:55.974Z,15.58
2018-12-26T14:59:24.651Z,17.00
2018-12-26T15:01:53.045Z,18.65
2018-12-26T15:04:21.739Z,13.88
2018-12-26T15:06:50.228Z,14.98
2018-12-26T15:09:18.654Z,15.63
2018-12-26T15:11:47.079Z,14.43
2018-12-26T15:14:15.497Z,14.70
2018-12-26T15:16:44.123Z,16.40
2018-12-26T15:19:16.862Z,12.53
2018-12-26T15:21:45.284Z,13.65
2018-12-26T15:24:13.678Z,13.58
2018-12-26T15:26:42.118Z,11.85
2018-12-26T15:29:10.573Z,12.93
2018-12-26T15:31:39.219Z,14.40
2018-12-26T15:34:07.890Z,13.55
2018-12-26T15:36:47.329Z,18.57
2018-12-26T15:39:15.737Z,13.62
2018-12-26T15:41:44.133Z,12.90
2018-12-26T15:44:12.631Z,16.45
2018-12-26T15:46:41.017Z,15.32
2018-12-26T15:49:09.449Z,12.47
2018-12-26T15:51:38.307Z,13.35
2018-12-26T15:54:07.017Z,13.53
2018-12-26T15:56:35.498Z,10.63
2018-12-26T15:59:03.954Z,12.33
2018-12-26T16:01:32.395Z,12.78
2018-12-26T16:04:00.858Z,10.55
2018-12-26T16:06:29.352Z,11.28
2018-12-26T16:09:07.939Z,12.78
2018-12-26T16:11:36.367Z,10.65
2018-12-26T16:14:13.870Z,14.53
2018-12-26T16:16:42.563Z,13.62
2018-12-26T16:19:11.265Z,14.95
2018-12-26T16:21:39.911Z,15.43
2018-12-26T16:24:08.310Z,12.80
2018-12-26T16:26:36.710Z,12.35
2018-12-26T16:29:05.364Z,12.70
2018-12-26T16:31:33.764Z,9.60
2018-12-26T16:34:02.412Z,13.90
2018-12-26T16:36:31.065Z,12.90
2018-12-26T16:38:59.477Z,11.15
2018-12-26T16:41:27.881Z,15.13
2018-12-26T16:43:56.524Z,16.07
2018-12-26T16:46:25.078Z,15.40
2018-12-26T16:48:53.525Z,11.90
2018-12-26T16:51:21.930Z,12.30
2018-12-26T16:53:50.330Z,15.78
2018-12-26T16:56:18.741Z,13.58
2018-12-26T16:58:47.222Z,12.75
2018-12-26T17:01:17.856Z,12.47
2018-12-26T17:03:46.278Z,14.40
2018-12-26T17:06:14.730Z,13.83
2018-12-26T17:08:43.138Z,17.12
2018-12-26T17:11:11.558Z,14.70
2018-12-26T17:13:40.314Z,13.62
2018-12-26T17:16:09.000Z,19.77
2018-12-26T17:18:37.658Z,16.75
2018-12-26T17:21:06.311Z,18.15
2018-12-26T17:23:34.710Z,12.50
2018-12-26T17:26:03.138Z,15.70
2018-12-26T17:28:31.805Z,18.50
2018-12-26T17:31:04.261Z,13.62
2018-12-26T17:33:32.163Z,15.93
2018-12-26T17:36:00.653Z,16.75
2018-12-26T17:38:29.126Z,15.95
2018-12-26T17:41:02.572Z,13.15
2018-12-26T17:43:31.222Z,13.22
2018-12-26T17:45:59.871Z,16.35
2018-12-26T17:48:28.343Z,13.90
2018-12-26T17:50:56.757Z,15.85
2018-12-26T17:53:28.303Z,12.30
2018-12-26T17:55:59.801Z,16.42
2018-12-26T17:58:31.353Z,16.07
2018-12-26T18:01:02.866Z,14.35
2018-12-26T18:03:31.318Z,13.50
2018-12-26T18:05:59.758Z,13.70
2018-12-26T18:08:28.154Z,15.48
2018-12-26T18:10:56.564Z,14.07
2018-12-26T18:13:27.929Z,15.13
2018-12-26T18:16:07.424Z,14.20
2018-12-26T18:18:35.851Z,14.93
2018-12-26T18:21:04.550Z,13.00
2018-12-26T18:23:33.348Z,15.48
2018-12-26T18:26:01.928Z,19.23
2018-12-26T18:28:30.352Z,16.52
2018-12-26T18:30:59.120Z,18.52
2018-12-26T18:33:34.301Z,16.60
2018-12-26T18:36:02.889Z,14.30
2018-12-26T18:38:31.428Z,19.77
2018-12-26T18:41:00.159Z,14.85
2018-12-26T18:43:30.100Z,20.15
2018-12-26T18:45:58.594Z,13.70
2018-12-26T18:48:27.047Z,16.52
2018-12-26T18:50:58.624Z,16.32
2018-12-26T18:53:27.081Z,16.07
2018-12-26T18:55:58.234Z,17.80
2018-12-26T18:58:26.638Z,16.05
2018-12-26T19:00:55.203Z,12.33
2018-12-26T19:03:23.621Z,14.00
2018-12-26T19:05:52.328Z,18.52
2018-12-26T19:08:20.723Z,17.67
2018-12-26T19:10:50.418Z,15.10
2018-12-26T19:13:19.109Z,15.43
2018-12-26T19:15:47.568Z,12.45
2018-12-26T19:18:18.794Z,16.50
2018-12-26T19:20:47.458Z,15.38
2018-12-26T19:23:18.695Z,14.93
2018-12-26T19:25:47.245Z,16.37
2018-12-26T19:28:15.626Z,18.85
2018-12-26T19:30:44.036Z,15.88
2018-12-26T19:33:12.419Z,16.30
2018-12-26T19:35:41.194Z,17.60
2018-12-26T19:38:09.638Z,16.55
2018-12-26T19:40:38.053Z,13.35
2018-12-26T19:43:06.491Z,16.00
2018-12-26T19:45:34.927Z,16.57
2018-12-26T19:48:03.345Z,15.40
2018-12-26T19:50:32.011Z,13.88
2018-12-26T19:53:02.514Z,15.15
2018-12-26T19:55:30.911Z,21.25
2018-12-26T19:57:59.313Z,19.50
2018-12-26T20:00:32.783Z,19.75
2018-12-26T20:03:01.480Z,19.73
2018-12-26T20:05:29.959Z,15.55
2018-12-26T20:07:58.715Z,19.23
2018-12-26T20:10:27.134Z,15.53
2018-12-26T20:12:55.854Z,19.37
2018-12-26T20:15:24.337Z,18.77
2018-12-26T20:17:52.931Z,24.25
2018-12-26T20:20:21.416Z,25.45
2018-12-26T20:22:52.498Z,22.27
2018-12-26T20:25:20.925Z,19.45
2018-12-26T20:27:50.874Z,19.00
2018-12-26T20:30:19.605Z,18.85
2018-12-26T20:32:48.102Z,20.45
2018-12-26T20:35:16.515Z,20.12
2018-12-26T20:37:44.912Z,24.15
2018-12-26T20:40:13.570Z,20.52
2018-12-26T20:42:42.002Z,20.32
2018-12-26T20:45:10.493Z,19.10
2018-12-26T20:47:38.894Z,17.37
2018-12-26T20:50:07.975Z,17.23
2018-12-26T20:52:36.438Z,18.67
2018-12-26T20:55:05.590Z,18.40
2018-12-26T20:57:33.994Z,19.07
2018-12-26T21:00:02.569Z,19.45
2018-12-26T21:02:31.219Z,20.23
2018-12-26T21:05:00.535Z,19.05
2018-12-26T21:07:29.311Z,19.57
2018-12-26T21:09:57.979Z,19.48
2018-12-26T21:12:39.534Z,17.17
2018-12-26T21:15:08.182Z,20.82
2018-12-26T21:17:36.595Z,18.67
2018-12-26T21:20:07.034Z,17.10
2018-12-26T21:22:36.224Z,19.25
2018-12-26T21:25:06.010Z,14.30
2018-12-26T21:27:34.535Z,22.02
2018-12-26T21:30:04.305Z,22.02
2018-12-26T21:32:32.765Z,21.77
2018-12-26T21:35:02.032Z,18.02
2018-12-26T21:37:30.427Z,19.15
2018-12-26T21:39:59.121Z,22.90
2018-12-26T21:42:27.688Z,22.27
2018-12-26T21:44:56.118Z,18.70
2018-12-26T21:47:24.529Z,20.05
2018-12-26T21:49:53.331Z,23.10
2018-12-26T21:52:21.975Z,22.80
2018-12-26T21:54:50.745Z,20.32
2018-12-26T21:57:31.201Z,18.85
2018-12-26T21:59:59.605Z,21.05
2018-12-26T22:02:28.015Z,24.25
2018-12-26T22:04:56.653Z,19.42
2018-12-26T22:07:25.213Z,21.55
2018-12-26T22:09:53.958Z,21.42
2018-12-26T22:12:22.361Z,16.65
2018-12-26T22:14:58.654Z,16.75
2018-12-26T22:17:27.356Z,18.90
2018-12-26T22:19:55.774Z,17.60
2018-12-26T22:22:24.174Z,16.48
2018-12-26T22:24:52.590Z,21.55
2018-12-26T22:27:20.991Z,18.40
2018-12-26T22:29:49.389Z,17.52
2018-12-26T22:32:17.797Z,18.92
2018-12-26T22:34:46.193Z,19.57
2018-12-26T22:37:14.607Z,21.97
2018-12-26T22:39:43.002Z,18.90
2018-12-26T22:42:11.423Z,18.20
2018-12-26T22:44:39.830Z,20.82
2018-12-26T22:47:08.236Z,20.90
2018-12-26T22:49:36.633Z,23.12
2018-12-26T22:52:05.282Z,18.23
2018-12-26T22:54:33.725Z,21.93
2018-12-26T22:57:02.764Z,21.12
2018-12-26T22:59:31.194Z,21.82
2018-12-26T23:01:59.831Z,20.75
2018-12-26T23:04:28.226Z,22.45
2018-12-26T23:06:56.645Z,23.07
2018-12-26T23:09:25.033Z,24.67
2018-12-26T23:11:53.442Z,17.95
2018-12-26T23:14:21.862Z,20.65
2018-12-26T23:16:50.269Z,19.85
2018-12-26T23:19:18.671Z,20.90
2018-12-26T23:21:47.338Z,17.65
2018-12-26T23:24:15.743Z,19.12
2018-12-26T23:26:44.154Z,19.40
2018-12-26T23:29:12.797Z,20.48
2018-12-26T23:31:41.461Z,22.75
2018-12-26T23:34:10.106Z,22.05
2018-12-26T23:36:38.509Z,18.75
2018-12-26T23:39:07.187Z,17.92
2018-12-26T23:41:35.574Z,24.40
2018-12-26T23:44:05.185Z,22.25
2018-12-26T23:46:33.584Z,17.23
2018-12-26T23:49:01.997Z,21.05
2018-12-26T23:51:30.634Z,23.35
2018-12-26T23:53:59.349Z,23.83
2018-12-26T23:56:27.746Z,16.90
2018-12-26T23:58:56.154Z,20.12
